createdAt,value
2022-12-22T00:00:19.694Z,99.99
2022-12-22T00:01:19.687Z,99.99
2022-12-22T00:02:19.818Z,99.99
2022-12-22T00:03:19.823Z,99.99
2022-12-22T00:04:19.693Z,99.99
2022-12-22T00:05:19.653Z,99.99
2022-12-22T00:06:19.659Z,99.99
2022-12-22T00:07:19.626Z,99.99
2022-12-22T00:08:19.612Z,99.99
2022-12-22T00:09:19.623Z,99.99
2022-12-22T00:10:19.613Z,99.99
2022-12-22T00:11:19.601Z,99.99
2022-12-22T00:12:19.594Z,99.99
2022-12-22T00:13:19.677Z,99.99
2022-12-22T00:14:19.552Z,99.99
2022-12-22T00:15:19.539Z,99.99
2022-12-22T00:16:19.616Z,99.99
2022-12-22T00:17:19.545Z,99.99
2022-12-22T00:18:19.522Z,99.99
2022-12-22T00:19:19.517Z,99.99
2022-12-22T00:20:19.477Z,99.99
2022-12-22T00:21:19.484Z,99.99
2022-12-22T00:22:19.443Z,99.99
2022-12-22T00:23:19.451Z,99.99
2022-12-22T00:24:19.457Z,99.99
2022-12-22T00:25:19.441Z,99.99
2022-12-22T00:26:19.421Z,99.99
2022-12-22T00:27:19.421Z,99.99
2022-12-22T00:28:19.413Z,99.99
2022-12-22T00:29:19.383Z,99.99
2022-12-22T00:30:27.923Z,99.99
2022-12-22T00:31:27.987Z,99.99
2022-12-22T00:32:19.352Z,99.99
2022-12-22T00:33:19.330Z,99.99
2022-12-22T00:34:19.302Z,99.99
2022-12-22T00:35:19.339Z,99.99
2022-12-22T00:36:19.336Z,99.99
2022-12-22T00:37:19.322Z,99.99
2022-12-22T00:38:19.290Z,99.99
2022-12-22T00:39:19.311Z,99.99
2022-12-22T00:40:19.259Z,99.99
2022-12-22T00:41:19.278Z,99.99
2022-12-22T00:42:19.239Z,99.99
2022-12-22T00:43:19.307Z,99.99
2022-12-22T00:44:19.297Z,99.99
2022-12-22T00:45:19.235Z,99.99
2022-12-22T00:46:19.247Z,99.99
2022-12-22T00:47:19.219Z,99.99
2022-12-22T00:48:19.170Z,99.99
2022-12-22T00:49:19.185Z,99.99
2022-12-22T00:50:19.291Z,99.99
2022-12-22T00:51:19.150Z,99.99
2022-12-22T00:52:19.144Z,99.99
2022-12-22T00:53:19.137Z,99.99
2022-12-22T00:54:19.117Z,99.99
2022-12-22T00:55:19.121Z,99.99
2022-12-22T00:56:19.110Z,99.99
2022-12-22T00:57:19.085Z,99.99
2022-12-22T00:58:19.084Z,99.99
2022-12-22T00:59:19.090Z,99.99
2022-12-22T01:00:19.062Z,99.99
2022-12-22T01:01:19.138Z,99.99
2022-12-22T01:02:19.180Z,99.99
2022-12-22T01:03:19.093Z,99.99
2022-12-22T01:04:19.027Z,99.99
2022-12-22T01:05:19.001Z,99.99
2022-12-22T01:06:18.994Z,99.99
2022-12-22T01:07:18.996Z,99.99
2022-12-22T01:08:18.965Z,99.99
2022-12-22T01:09:18.951Z,99.99
2022-12-22T01:10:18.949Z,99.99
2022-12-22T01:11:18.944Z,99.99
2022-12-22T01:12:18.949Z,99.99
2022-12-22T01:13:18.904Z,99.99
2022-12-22T01:14:18.902Z,99.99
2022-12-22T01:15:18.936Z,99.99
2022-12-22T01:16:19.003Z,99.99
2022-12-22T01:17:18.868Z,99.99
2022-12-22T01:18:18.856Z,99.99
2022-12-22T01:19:19.225Z,99.99
2022-12-22T01:20:18.834Z,99.99
2022-12-22T01:21:18.826Z,99.99
2022-12-22T01:22:18.844Z,99.99
2022-12-22T01:23:18.801Z,99.99
2022-12-22T01:24:18.812Z,99.99
2022-12-22T01:25:18.774Z,99.99
2022-12-22T01:26:18.773Z,99.99
2022-12-22T01:27:18.773Z,99.99
2022-12-22T01:28:18.754Z,99.99
2022-12-22T01:29:18.760Z,99.99
2022-12-22T01:30:18.747Z,99.99
2022-12-22T01:31:18.774Z,99.99
2022-12-22T01:32:18.721Z,99.99
2022-12-22T01:33:18.696Z,99.99
2022-12-22T01:34:18.703Z,99.99
2022-12-22T01:35:18.684Z,99.99
2022-12-22T01:36:18.668Z,99.99
2022-12-22T01:37:18.652Z,99.99
2022-12-22T01:38:18.657Z,99.99
2022-12-22T01:39:18.621Z,99.99
2022-12-22T01:40:18.639Z,99.99
2022-12-22T01:41:18.608Z,99.99
2022-12-22T01:42:18.613Z,99.99
2022-12-22T01:43:18.567Z,99.99
2022-12-22T01:44:18.594Z,99.99
2022-12-22T01:45:18.553Z,99.99
2022-12-22T01:46:18.734Z,99.99
2022-12-22T01:47:18.538Z,99.99
2022-12-22T01:48:19.237Z,99.99
2022-12-22T01:49:18.534Z,99.99
2022-12-22T01:50:18.529Z,99.99
2022-12-22T01:51:18.502Z,99.99
2022-12-22T01:52:18.515Z,99.99
2022-12-22T01:53:20.040Z,99.99
2022-12-22T01:54:18.483Z,99.99
2022-12-22T01:55:18.458Z,99.99
2022-12-22T01:56:18.468Z,99.99
2022-12-22T01:57:18.457Z,99.99
2022-12-22T01:58:18.437Z,99.99
2022-12-22T01:59:18.464Z,99.99
2022-12-22T02:00:18.418Z,99.99
2022-12-22T02:01:18.425Z,99.99
2022-12-22T02:02:18.520Z,99.99
2022-12-22T02:03:18.400Z,99.99
2022-12-22T02:04:18.349Z,99.99
2022-12-22T02:05:18.330Z,99.99
2022-12-22T02:06:18.345Z,99.99
2022-12-22T02:07:18.303Z,99.99
2022-12-22T02:08:18.315Z,99.99
2022-12-22T02:09:18.297Z,99.99
2022-12-22T02:10:18.291Z,99.99
2022-12-22T02:11:18.276Z,99.99
2022-12-22T02:12:18.257Z,99.99
2022-12-22T02:13:18.251Z,99.99
2022-12-22T02:14:18.289Z,99.99
2022-12-22T02:15:18.217Z,99.99
2022-12-22T02:16:18.309Z,99.99
2022-12-22T02:17:18.278Z,99.99
2022-12-22T02:18:18.211Z,99.99
2022-12-22T02:19:18.228Z,99.99
2022-12-22T02:20:18.203Z,99.99
2022-12-22T02:21:18.179Z,99.99
2022-12-22T02:22:18.173Z,99.99
2022-12-22T02:23:18.148Z,99.99
2022-12-22T02:24:18.143Z,99.99
2022-12-22T02:25:18.133Z,99.99
2022-12-22T02:26:18.130Z,99.99
2022-12-22T02:27:18.102Z,99.99
2022-12-22T02:28:18.102Z,99.99
2022-12-22T02:29:18.076Z,99.99
2022-12-22T02:30:18.100Z,99.99
2022-12-22T02:31:18.165Z,99.99
2022-12-22T02:32:18.064Z,99.99
2022-12-22T02:33:18.042Z,99.99
2022-12-22T02:34:18.059Z,99.99
2022-12-22T02:35:18.030Z,99.99
2022-12-22T02:36:18.032Z,99.99
2022-12-22T02:37:17.988Z,99.99
2022-12-22T02:38:18.005Z,99.99
2022-12-22T02:39:17.992Z,99.99
2022-12-22T02:40:17.973Z,99.99
2022-12-22T02:41:17.957Z,99.99
2022-12-22T02:42:17.987Z,99.99
2022-12-22T02:43:17.933Z,99.99
2022-12-22T02:44:17.918Z,99.99
2022-12-22T02:45:17.915Z,99.99
2022-12-22T02:46:17.974Z,99.99
2022-12-22T02:47:17.949Z,99.99
2022-12-22T02:48:17.987Z,99.99
2022-12-22T02:49:17.865Z,99.99
2022-12-22T02:50:17.852Z,99.99
2022-12-22T02:51:17.841Z,99.99
2022-12-22T02:52:17.836Z,99.99
2022-12-22T02:53:17.812Z,99.99
2022-12-22T02:54:17.841Z,99.99
2022-12-22T02:55:17.785Z,99.99
2022-12-22T02:56:17.812Z,99.99
2022-12-22T02:57:17.763Z,99.99
2022-12-22T02:58:17.778Z,99.99
2022-12-22T02:59:17.768Z,99.99
2022-12-22T03:00:17.804Z,99.99
2022-12-22T03:01:17.773Z,99.99
2022-12-22T03:02:18.014Z,99.99
2022-12-22T03:03:17.895Z,99.99
2022-12-22T03:04:17.908Z,99.99
2022-12-22T03:05:17.700Z,99.99
2022-12-22T03:06:17.676Z,99.99
2022-12-22T03:07:17.672Z,99.99
2022-12-22T03:08:17.684Z,99.99
2022-12-22T03:09:17.657Z,99.99
2022-12-22T03:10:17.676Z,99.99
2022-12-22T03:11:17.618Z,99.99
2022-12-22T03:12:17.621Z,99.99
2022-12-22T03:13:17.607Z,99.99
2022-12-22T03:14:17.594Z,99.99
2022-12-22T03:15:17.576Z,99.99
2022-12-22T03:16:17.598Z,99.99
2022-12-22T03:17:17.585Z,99.99
2022-12-22T03:18:17.569Z,99.99
2022-12-22T03:19:17.700Z,99.99
2022-12-22T03:20:17.559Z,99.99
2022-12-22T03:21:17.517Z,99.99
2022-12-22T03:22:17.513Z,99.99
2022-12-22T03:23:17.479Z,99.99
2022-12-22T03:24:17.489Z,99.99
2022-12-22T03:25:17.474Z,99.99
2022-12-22T03:26:17.455Z,99.99
2022-12-22T03:27:17.464Z,99.99
2022-12-22T03:28:17.448Z,99.99
2022-12-22T03:29:17.436Z,99.99
2022-12-22T03:30:17.440Z,99.99
2022-12-22T03:31:17.471Z,99.99
2022-12-22T03:32:17.419Z,99.99
2022-12-22T03:33:17.398Z,99.99
2022-12-22T03:34:17.365Z,99.99
2022-12-22T03:35:17.362Z,99.99
2022-12-22T03:36:17.361Z,99.99
2022-12-22T03:37:17.371Z,99.99
2022-12-22T03:38:17.327Z,99.99
2022-12-22T03:39:17.337Z,99.99
2022-12-22T03:40:17.321Z,99.99
2022-12-22T03:41:17.303Z,99.99
2022-12-22T03:42:17.300Z,99.99
2022-12-22T03:43:17.306Z,99.99
2022-12-22T03:44:17.283Z,99.99
2022-12-22T03:45:17.262Z,99.99
2022-12-22T03:46:17.292Z,99.99
2022-12-22T03:47:17.309Z,99.99
2022-12-22T03:48:17.240Z,99.99
2022-12-22T03:49:17.223Z,99.99
2022-12-22T03:50:17.369Z,99.99
2022-12-22T03:51:17.185Z,99.99
2022-12-22T03:52:17.190Z,99.99
2022-12-22T03:53:17.162Z,99.99
2022-12-22T03:54:17.173Z,99.99
2022-12-22T03:55:17.140Z,99.99
2022-12-22T03:56:17.157Z,99.99
2022-12-22T03:57:17.119Z,99.99
2022-12-22T03:58:17.139Z,99.99
2022-12-22T03:59:17.117Z,99.99
2022-12-22T04:00:17.121Z,99.99
2022-12-22T04:01:17.242Z,99.99
2022-12-22T04:02:17.172Z,99.99
2022-12-22T04:03:17.085Z,99.99
2022-12-22T04:04:17.055Z,99.99
2022-12-22T04:05:17.037Z,99.99
2022-12-22T04:06:17.031Z,99.99
2022-12-22T04:07:24.539Z,99.99
2022-12-22T04:08:17.010Z,99.99
2022-12-22T04:09:16.984Z,99.99
2022-12-22T04:10:16.997Z,99.99
2022-12-22T04:11:16.950Z,99.99
2022-12-22T04:12:16.971Z,99.99
2022-12-22T04:13:16.949Z,99.99
2022-12-22T04:14:16.958Z,99.99
2022-12-22T04:15:16.933Z,99.99
2022-12-22T04:16:16.973Z,99.99
2022-12-22T04:17:16.917Z,99.99
2022-12-22T04:18:16.925Z,99.99
2022-12-22T04:19:16.887Z,99.99
2022-12-22T04:20:16.911Z,99.99
2022-12-22T04:21:16.849Z,99.99
2022-12-22T04:22:16.872Z,99.99
2022-12-22T04:23:16.816Z,99.99
2022-12-22T04:24:16.849Z,99.99
2022-12-22T04:25:16.813Z,99.99
2022-12-22T04:26:16.815Z,99.99
2022-12-22T04:27:16.789Z,99.99
2022-12-22T04:28:16.821Z,99.99
2022-12-22T04:29:16.827Z,99.99
2022-12-22T04:30:16.759Z,99.99
2022-12-22T04:31:16.817Z,99.99
2022-12-22T04:32:16.821Z,99.99
2022-12-22T04:33:16.737Z,99.99
2022-12-22T04:34:16.718Z,99.99
2022-12-22T04:35:16.687Z,99.99
2022-12-22T04:36:16.735Z,99.99
2022-12-22T04:37:17.812Z,99.99
2022-12-22T04:38:16.680Z,99.99
2022-12-22T04:39:16.699Z,99.99
2022-12-22T04:40:16.667Z,99.99
2022-12-22T04:41:16.644Z,99.99
2022-12-22T04:42:16.647Z,99.99
2022-12-22T04:43:16.618Z,99.99
2022-12-22T04:44:16.628Z,99.99
2022-12-22T04:45:16.584Z,99.99
2022-12-22T04:46:16.689Z,99.99
2022-12-22T04:47:16.569Z,99.99
2022-12-22T04:48:16.568Z,99.99
2022-12-22T04:49:16.545Z,99.99
2022-12-22T04:50:16.573Z,99.99
2022-12-22T04:51:16.946Z,99.99
2022-12-22T04:52:16.561Z,99.99
2022-12-22T04:53:16.487Z,99.99
2022-12-22T04:54:16.538Z,99.99
2022-12-22T04:55:16.504Z,99.99
2022-12-22T04:56:16.506Z,99.99
2022-12-22T04:57:16.486Z,99.99
2022-12-22T04:58:16.466Z,99.99
2022-12-22T04:59:16.424Z,99.99
2022-12-22T05:00:16.467Z,99.99
2022-12-22T05:01:16.507Z,99.99
2022-12-22T05:02:16.489Z,99.99
2022-12-22T05:03:16.472Z,99.99
2022-12-22T05:04:21.887Z,99.99
2022-12-22T05:05:17.374Z,99.99
2022-12-22T05:06:16.377Z,99.99
2022-12-22T05:07:16.355Z,99.99
2022-12-22T05:08:16.350Z,99.99
2022-12-22T05:09:16.328Z,99.99
2022-12-22T05:10:16.351Z,99.99
2022-12-22T05:11:16.310Z,99.99
2022-12-22T05:12:16.310Z,99.99
2022-12-22T05:13:16.314Z,99.99
2022-12-22T05:14:16.309Z,99.99
2022-12-22T05:15:16.269Z,99.99
2022-12-22T05:16:16.324Z,99.99
2022-12-22T05:17:16.254Z,99.99
2022-12-22T05:18:16.263Z,99.99
2022-12-22T05:19:16.225Z,99.99
2022-12-22T05:20:16.250Z,99.99
2022-12-22T05:21:16.214Z,99.99
2022-12-22T05:22:16.229Z,99.99
2022-12-22T05:23:16.208Z,99.99
2022-12-22T05:24:16.198Z,99.99
2022-12-22T05:25:16.190Z,99.99
2022-12-22T05:26:16.156Z,99.99
2022-12-22T05:27:16.144Z,99.99
2022-12-22T05:28:16.112Z,99.99
2022-12-22T05:29:16.119Z,99.99
2022-12-22T05:30:16.099Z,99.99
2022-12-22T05:31:16.216Z,99.99
2022-12-22T05:32:16.084Z,99.99
2022-12-22T05:33:16.087Z,99.99
2022-12-22T05:34:16.068Z,99.99
2022-12-22T05:35:16.072Z,99.99
2022-12-22T05:36:16.058Z,99.99
2022-12-22T05:37:16.089Z,99.99
2022-12-22T05:38:16.022Z,99.99
2022-12-22T05:39:16.010Z,99.99
2022-12-22T05:40:15.994Z,99.99
2022-12-22T05:41:16.015Z,99.99
2022-12-22T05:42:15.975Z,99.99
2022-12-22T05:43:15.991Z,99.99
2022-12-22T05:44:15.945Z,99.99
2022-12-22T05:45:15.965Z,99.99
2022-12-22T05:46:15.967Z,99.99
2022-12-22T05:47:15.915Z,99.99
2022-12-22T05:48:18.827Z,99.99
2022-12-22T05:49:16.912Z,99.99
2022-12-22T05:50:15.903Z,99.99
2022-12-22T05:51:15.901Z,99.99
2022-12-22T05:52:15.890Z,99.99
2022-12-22T05:53:16.024Z,99.99
2022-12-22T05:54:15.847Z,99.99
2022-12-22T05:55:15.877Z,99.99
2022-12-22T05:56:15.848Z,99.99
2022-12-22T05:57:15.844Z,99.99
2022-12-22T05:58:15.824Z,99.99
2022-12-22T05:59:15.797Z,99.99
2022-12-22T06:00:15.838Z,99.99
2022-12-22T06:01:15.781Z,99.99
2022-12-22T06:02:16.008Z,99.99
2022-12-22T06:03:15.807Z,99.99
2022-12-22T06:04:15.893Z,99.99
2022-12-22T06:05:15.749Z,99.99
2022-12-22T06:06:15.707Z,99.99
2022-12-22T06:07:15.716Z,99.99
2022-12-22T06:08:15.698Z,99.99
2022-12-22T06:09:15.696Z,99.99
2022-12-22T06:10:15.682Z,99.99
2022-12-22T06:11:15.698Z,99.99
2022-12-22T06:12:15.996Z,99.99
2022-12-22T06:13:15.672Z,99.99
2022-12-22T06:14:15.625Z,99.99
2022-12-22T06:15:15.639Z,99.99
2022-12-22T06:16:15.635Z,99.99
2022-12-22T06:17:15.619Z,99.99
2022-12-22T06:18:15.583Z,99.99
2022-12-22T06:19:15.594Z,99.99
2022-12-22T06:20:15.570Z,99.99
2022-12-22T06:21:15.575Z,99.99
2022-12-22T06:22:15.537Z,99.99
2022-12-22T06:23:15.561Z,99.99
2022-12-22T06:24:15.587Z,99.99
2022-12-22T06:25:18.398Z,99.99
2022-12-22T06:26:15.522Z,99.99
2022-12-22T06:27:15.496Z,99.99
2022-12-22T06:28:15.478Z,99.99
2022-12-22T06:29:15.478Z,99.99
2022-12-22T06:30:15.497Z,99.99
2022-12-22T06:31:15.517Z,99.99
2022-12-22T06:32:15.423Z,99.99
2022-12-22T06:33:15.500Z,99.99
2022-12-22T06:34:15.418Z,99.99
2022-12-22T06:35:15.419Z,99.99
2022-12-22T06:36:15.389Z,99.99
2022-12-22T06:37:15.395Z,99.99
2022-12-22T06:38:15.379Z,99.99
2022-12-22T06:39:15.388Z,99.99
2022-12-22T06:40:15.351Z,99.99
2022-12-22T06:41:15.347Z,99.99
2022-12-22T06:42:15.338Z,99.99
2022-12-22T06:43:15.307Z,99.99
2022-12-22T06:44:15.305Z,99.99
2022-12-22T06:45:15.320Z,99.99
2022-12-22T06:46:15.316Z,99.99
2022-12-22T06:47:15.293Z,99.99
2022-12-22T06:48:15.274Z,99.99
2022-12-22T06:49:15.270Z,99.99
2022-12-22T06:50:15.247Z,99.99
2022-12-22T06:51:15.224Z,99.99
2022-12-22T06:52:15.229Z,99.99
2022-12-22T06:53:15.223Z,99.99
2022-12-22T06:54:16.115Z,99.99
2022-12-22T06:55:15.405Z,99.99
2022-12-22T06:56:15.186Z,99.99
2022-12-22T06:57:15.173Z,99.99
2022-12-22T06:58:15.187Z,99.99
2022-12-22T06:59:15.168Z,99.99
2022-12-22T07:00:15.176Z,99.99
2022-12-22T07:01:15.194Z,99.99
2022-12-22T07:02:15.245Z,99.99
2022-12-22T07:03:15.422Z,99.99
2022-12-22T07:04:15.181Z,99.99
2022-12-22T07:05:15.098Z,99.99
2022-12-22T07:06:15.054Z,99.99
2022-12-22T07:07:15.083Z,99.99
2022-12-22T07:08:15.040Z,99.99
2022-12-22T07:09:15.050Z,99.99
2022-12-22T07:10:15.037Z,99.99
2022-12-22T07:11:15.032Z,99.99
2022-12-22T07:12:15.016Z,99.99
2022-12-22T07:13:15.008Z,99.99
2022-12-22T07:14:14.980Z,99.99
2022-12-22T07:15:14.971Z,99.99
2022-12-22T07:16:14.994Z,99.99
2022-12-22T07:17:14.947Z,99.99
2022-12-22T07:18:14.937Z,99.99
2022-12-22T07:19:14.940Z,99.99
2022-12-22T07:20:14.945Z,99.99
2022-12-22T07:21:14.925Z,99.99
2022-12-22T07:22:14.897Z,99.99
2022-12-22T07:23:14.872Z,99.99
2022-12-22T07:24:14.880Z,99.99
2022-12-22T07:25:14.919Z,99.99
2022-12-22T07:26:14.948Z,99.99
2022-12-22T07:27:14.849Z,99.99
2022-12-22T07:28:20.257Z,99.99
2022-12-22T07:29:15.831Z,99.99
2022-12-22T07:30:14.805Z,99.99
2022-12-22T07:31:14.818Z,99.99
2022-12-22T07:32:14.765Z,99.99
2022-12-22T07:33:14.810Z,99.99
2022-12-22T07:34:14.799Z,99.99
2022-12-22T07:35:14.742Z,99.99
2022-12-22T07:36:14.759Z,99.99
2022-12-22T07:37:14.761Z,99.99
2022-12-22T07:38:14.723Z,99.99
2022-12-22T07:39:14.710Z,99.99
2022-12-22T07:40:15.384Z,99.99
2022-12-22T07:41:14.691Z,99.99
2022-12-22T07:42:14.684Z,99.99
2022-12-22T07:43:14.716Z,99.99
2022-12-22T07:44:14.643Z,99.99
2022-12-22T07:45:14.638Z,99.99
2022-12-22T07:46:14.628Z,99.99
2022-12-22T07:47:14.623Z,99.99
2022-12-22T07:49:17.375Z,99.99
2022-12-22T07:50:15.628Z,99.99
2022-12-22T07:51:15.571Z,99.99
2022-12-22T07:52:15.545Z,99.99
2022-12-22T07:53:15.556Z,99.99
2022-12-22T07:54:15.525Z,99.99
2022-12-22T07:55:15.555Z,99.99
2022-12-22T07:56:15.636Z,99.99
2022-12-22T07:57:15.508Z,99.99
2022-12-22T07:58:15.477Z,99.99
2022-12-22T07:59:15.489Z,99.99
2022-12-22T08:00:15.605Z,99.99
2022-12-22T08:01:15.464Z,99.99
2022-12-22T08:02:15.566Z,99.99
2022-12-22T08:03:15.628Z,99.99
2022-12-22T08:04:15.469Z,99.99
2022-12-22T08:05:15.523Z,99.99
2022-12-22T08:06:15.408Z,99.99
2022-12-22T08:07:15.416Z,99.99
2022-12-22T08:08:15.383Z,99.99
2022-12-22T08:09:15.375Z,99.99
2022-12-22T08:10:15.361Z,99.99
2022-12-22T08:11:15.362Z,99.99
2022-12-22T08:12:15.328Z,99.99
2022-12-22T08:13:15.424Z,99.99
2022-12-22T08:14:15.312Z,99.99
2022-12-22T08:15:15.346Z,99.99
2022-12-22T08:16:15.324Z,99.99
2022-12-22T08:17:15.303Z,99.99
2022-12-22T08:18:15.266Z,99.99
2022-12-22T08:19:15.269Z,99.99
2022-12-22T08:20:15.262Z,99.99
2022-12-22T08:21:15.239Z,99.99
2022-12-22T08:22:15.249Z,99.99
2022-12-22T08:23:15.253Z,99.99
2022-12-22T08:24:15.301Z,99.99
2022-12-22T08:25:15.318Z,99.99
2022-12-22T08:26:15.325Z,99.99
2022-12-22T08:27:19.521Z,99.99
2022-12-22T08:28:16.269Z,99.99
2022-12-22T08:29:15.299Z,99.99
2022-12-22T08:30:15.265Z,99.99
2022-12-22T08:31:15.266Z,99.99
2022-12-22T08:32:15.117Z,99.99
2022-12-22T08:33:15.135Z,99.99
2022-12-22T08:34:15.114Z,99.99
2022-12-22T08:35:15.115Z,99.99
2022-12-22T08:36:15.221Z,99.99
2022-12-22T08:37:15.112Z,99.99
2022-12-22T08:38:15.455Z,99.99
2022-12-22T08:39:15.088Z,99.99
2022-12-22T08:40:15.049Z,99.99
2022-12-22T08:41:15.478Z,99.99
2022-12-22T08:42:15.025Z,99.99
2022-12-22T08:43:15.013Z,99.99
2022-12-22T08:44:15.025Z,99.99
2022-12-22T08:45:15.169Z,99.99
2022-12-22T08:46:15.080Z,99.99
2022-12-22T08:47:17.110Z,99.99
2022-12-22T08:48:15.153Z,99.99
2022-12-22T08:49:14.956Z,99.99
2022-12-22T08:50:15.391Z,99.99
2022-12-22T08:51:14.921Z,99.99
2022-12-22T08:52:18.704Z,99.99
2022-12-22T08:53:37.636Z,99.99
2022-12-22T08:54:15.905Z,99.99
2022-12-22T08:55:14.873Z,99.99
2022-12-22T08:56:14.897Z,99.99
2022-12-22T08:57:14.864Z,99.99
2022-12-22T08:58:14.901Z,99.99
2022-12-22T08:59:14.835Z,99.99
2022-12-22T09:00:14.937Z,99.99
2022-12-22T09:01:14.945Z,99.99
2022-12-22T09:02:14.830Z,99.99
2022-12-22T09:03:14.930Z,99.99
2022-12-22T09:04:14.901Z,99.99
2022-12-22T09:05:14.777Z,99.99
2022-12-22T09:06:14.791Z,99.99
2022-12-22T09:07:14.762Z,99.99
2022-12-22T09:08:14.792Z,99.99
2022-12-22T09:09:14.753Z,99.99
2022-12-22T09:10:14.725Z,99.99
2022-12-22T09:11:14.901Z,99.99
2022-12-22T09:12:14.718Z,99.99
2022-12-22T09:13:14.680Z,99.99
2022-12-22T09:14:14.677Z,99.99
2022-12-22T09:15:14.687Z,99.99
2022-12-22T09:16:14.770Z,99.99
2022-12-22T09:17:14.779Z,99.99
2022-12-22T09:18:14.661Z,99.99
2022-12-22T09:19:14.679Z,99.99
2022-12-22T09:20:14.624Z,99.99
2022-12-22T09:21:14.600Z,99.99
2022-12-22T09:22:14.592Z,99.99
2022-12-22T09:23:14.584Z,99.99
2022-12-22T09:24:14.601Z,99.99
2022-12-22T09:25:14.955Z,99.99
2022-12-22T09:26:14.606Z,99.99
2022-12-22T09:27:14.527Z,99.99
2022-12-22T09:28:14.916Z,99.99
2022-12-22T09:29:14.536Z,99.99
2022-12-22T09:30:14.704Z,99.99
2022-12-22T09:31:14.542Z,99.99
2022-12-22T09:32:14.629Z,99.99
2022-12-22T09:33:14.475Z,99.99
2022-12-22T09:34:18.121Z,99.99
2022-12-22T09:35:14.439Z,99.99
2022-12-22T09:36:14.453Z,99.99
2022-12-22T09:37:14.434Z,99.99
2022-12-22T09:38:14.437Z,99.99
2022-12-22T09:39:14.812Z,99.99
2022-12-22T09:40:14.899Z,99.99
2022-12-22T09:41:14.386Z,99.99
2022-12-22T09:42:14.411Z,99.99
2022-12-22T09:43:14.389Z,99.99
2022-12-22T09:44:14.360Z,99.99
2022-12-22T09:45:17.199Z,99.99
2022-12-22T09:46:14.486Z,99.99
2022-12-22T09:47:14.395Z,99.99
2022-12-22T09:48:14.337Z,99.99
2022-12-22T09:49:14.712Z,99.99
2022-12-22T09:50:14.356Z,99.99
2022-12-22T09:51:14.269Z,99.99
2022-12-22T09:52:14.268Z,99.99
2022-12-22T09:53:14.248Z,99.99
2022-12-22T09:54:14.281Z,99.99
2022-12-22T09:55:14.290Z,99.99
2022-12-22T09:56:14.254Z,99.99
2022-12-22T09:57:14.219Z,99.99
2022-12-22T09:58:14.221Z,99.99
2022-12-22T09:59:14.400Z,99.99
2022-12-22T10:00:14.241Z,99.99
2022-12-22T10:01:14.234Z,99.99
2022-12-22T10:02:14.311Z,99.99
2022-12-22T10:03:14.589Z,99.99
2022-12-22T10:04:14.152Z,99.99
2022-12-22T10:05:14.171Z,99.99
2022-12-22T10:06:14.144Z,99.99
2022-12-22T10:07:14.155Z,99.99
2022-12-22T10:08:14.351Z,99.99
2022-12-22T10:09:44.018Z,99.99
2022-12-22T10:10:15.237Z,99.99
2022-12-22T10:11:14.069Z,99.99
2022-12-22T10:12:14.070Z,99.99
2022-12-22T10:13:14.173Z,99.99
2022-12-22T10:14:14.033Z,99.99
2022-12-22T10:15:18.485Z,99.99
2022-12-22T10:16:15.048Z,99.99
2022-12-22T10:17:14.014Z,99.99
2022-12-22T10:18:14.012Z,99.99
2022-12-22T10:19:14.480Z,99.99
2022-12-22T10:20:14.022Z,99.99
2022-12-22T10:21:13.966Z,99.99
2022-12-22T10:22:13.957Z,99.99
2022-12-22T10:23:13.936Z,99.99
2022-12-22T10:24:13.964Z,99.99
2022-12-22T10:25:14.059Z,99.99
2022-12-22T10:26:31.089Z,99.99
2022-12-22T10:27:14.885Z,99.99
2022-12-22T10:28:13.893Z,99.99
2022-12-22T10:29:14.253Z,99.99
2022-12-22T10:30:13.884Z,99.99
2022-12-22T10:31:13.846Z,99.99
2022-12-22T10:32:13.928Z,99.99
2022-12-22T10:33:14.529Z,99.99
2022-12-22T10:34:14.176Z,99.99
2022-12-22T10:35:13.830Z,99.99
2022-12-22T10:36:13.799Z,99.99
2022-12-22T10:37:13.846Z,99.99
2022-12-22T10:38:21.225Z,99.99
2022-12-22T10:39:14.884Z,99.99
2022-12-22T10:40:13.790Z,99.99
2022-12-22T10:41:13.745Z,99.99
2022-12-22T10:42:13.986Z,99.99
2022-12-22T10:43:13.732Z,99.99
2022-12-22T10:44:13.726Z,99.99
2022-12-22T10:45:13.698Z,99.99
2022-12-22T10:46:13.797Z,99.99
2022-12-22T10:47:17.362Z,99.99
2022-12-22T10:48:14.172Z,99.99
2022-12-22T10:49:14.416Z,99.99
2022-12-22T10:50:13.789Z,99.99
2022-12-22T10:51:13.630Z,99.99
2022-12-22T10:52:13.758Z,99.99
2022-12-22T10:53:14.122Z,99.99
2022-12-22T10:54:13.629Z,99.99
2022-12-22T10:55:13.613Z,99.99
2022-12-22T10:56:13.659Z,99.99
2022-12-22T10:57:13.647Z,99.99
2022-12-22T10:58:13.589Z,99.99
2022-12-22T10:59:13.584Z,99.99
2022-12-22T11:00:14.275Z,99.99
2022-12-22T11:01:13.593Z,99.99
2022-12-22T11:02:13.812Z,99.99
2022-12-22T11:03:16.157Z,99.99
2022-12-22T11:04:14.516Z,99.99
2022-12-22T11:05:13.584Z,99.99
2022-12-22T11:06:13.921Z,99.99
2022-12-22T11:07:13.506Z,99.99
2022-12-22T11:08:13.488Z,99.99
2022-12-22T11:09:32.383Z,99.99
2022-12-22T11:10:14.497Z,99.99
2022-12-22T11:11:13.443Z,99.99
2022-12-22T11:12:13.432Z,99.99
2022-12-22T11:13:13.592Z,99.99
2022-12-22T11:14:13.712Z,99.99
2022-12-22T11:15:16.112Z,99.99
2022-12-22T11:16:14.522Z,99.99
2022-12-22T11:17:13.453Z,99.99
2022-12-22T11:18:13.371Z,99.99
2022-12-22T11:19:13.359Z,99.99
2022-12-22T11:20:13.549Z,99.99
2022-12-22T11:21:17.250Z,99.99
2022-12-22T11:22:14.359Z,99.99
2022-12-22T11:23:13.439Z,99.99
2022-12-22T11:24:13.399Z,99.99
2022-12-22T11:25:13.279Z,99.99
2022-12-22T11:26:13.278Z,99.99
2022-12-22T11:27:13.478Z,99.99
2022-12-22T11:28:13.257Z,99.99
2022-12-22T11:29:13.229Z,99.99
2022-12-22T11:30:13.225Z,99.99
2022-12-22T11:31:13.874Z,99.99
2022-12-22T11:32:13.332Z,99.99
2022-12-22T11:33:13.249Z,99.99
2022-12-22T11:34:20.614Z,99.99
2022-12-22T11:35:14.341Z,99.99
2022-12-22T11:36:13.171Z,99.99
2022-12-22T11:37:13.962Z,99.99
2022-12-22T11:38:13.148Z,99.99
2022-12-22T11:39:13.243Z,99.99
2022-12-22T11:40:13.117Z,99.99
2022-12-22T11:41:13.270Z,99.99
2022-12-22T11:42:13.340Z,99.99
2022-12-22T11:43:13.061Z,99.99
2022-12-22T11:44:13.085Z,99.99
2022-12-22T11:45:13.036Z,99.99
2022-12-22T11:46:13.670Z,99.99
2022-12-22T11:47:13.080Z,99.99
2022-12-22T11:48:13.221Z,99.99
2022-12-22T11:49:13.341Z,99.99
2022-12-22T11:50:58.325Z,99.99
2022-12-22T11:51:14.398Z,99.99
2022-12-22T11:52:13.000Z,99.99
2022-12-22T11:53:12.977Z,99.99
2022-12-22T11:54:13.023Z,99.99
2022-12-22T11:55:13.023Z,99.99
2022-12-22T11:56:12.950Z,99.55
2022-12-22T11:57:12.932Z,98.18
2022-12-22T11:58:12.926Z,97.87
2022-12-22T11:59:13.008Z,98.22
2022-12-22T12:00:13.048Z,99.09
2022-12-22T12:01:17.622Z,99.55
2022-12-22T12:02:14.203Z,98.94
2022-12-22T12:03:13.005Z,98.47
2022-12-22T12:04:12.913Z,98.53
2022-12-22T12:05:12.844Z,96.95
2022-12-22T12:06:12.860Z,96.54
2022-12-22T12:07:12.814Z,95.88
2022-12-22T12:08:12.869Z,95.26
2022-12-22T12:09:12.804Z,95.37
2022-12-22T12:10:12.813Z,95.37
2022-12-22T12:11:12.773Z,94.92
2022-12-22T12:12:12.921Z,94.81
2022-12-22T12:13:12.755Z,94.14
2022-12-22T12:14:12.762Z,95.10
2022-12-22T12:15:12.834Z,94.90
2022-12-22T12:16:12.951Z,94.59
2022-12-22T12:17:12.873Z,95.31
2022-12-22T12:18:12.713Z,95.56
2022-12-22T12:19:12.701Z,95.31
2022-12-22T12:20:12.705Z,94.34
2022-12-22T12:21:12.670Z,93.52
2022-12-22T12:22:12.683Z,93.32
2022-12-22T12:23:12.861Z,92.91
2022-12-22T12:24:12.647Z,92.50
2022-12-22T12:25:12.874Z,92.24
2022-12-22T12:26:12.629Z,92.96
2022-12-22T12:27:12.607Z,93.12
2022-12-22T12:28:12.610Z,92.36
2022-12-22T12:29:12.580Z,92.15
2022-12-22T12:31:14.052Z,90.92
2022-12-22T12:32:12.773Z,90.37
2022-12-22T12:33:12.785Z,89.25
2022-12-22T12:34:12.581Z,89.35
2022-12-22T12:35:12.585Z,90.25
2022-12-22T12:36:12.521Z,92.14
2022-12-22T12:37:12.496Z,92.59
2022-12-22T12:38:32.322Z,93.25
2022-12-22T12:39:13.838Z,94.17
2022-12-22T12:40:12.524Z,94.48
2022-12-22T12:41:12.453Z,94.78
2022-12-22T12:42:12.464Z,93.86
2022-12-22T12:43:16.293Z,92.98
2022-12-22T12:44:12.620Z,93.60
2022-12-22T12:45:12.459Z,94.15
2022-12-22T12:46:12.702Z,93.33
2022-12-22T12:47:12.878Z,93.44
2022-12-22T12:48:12.874Z,93.08
2022-12-22T12:49:12.868Z,92.47
2022-12-22T12:50:12.396Z,92.00
2022-12-22T12:51:12.428Z,92.82
2022-12-22T12:52:12.365Z,92.10
2022-12-22T12:53:12.327Z,90.97
2022-12-22T12:54:12.309Z,91.55